sensor_id;sensor_type;location;lat;lon;timestamp;pressure;altitude;pressure_sealevel;temperature;humidity
18918;BME280;9591;52.742;13.650;2023-05-02T00:01:54;100806.59;;;12.36;91.04
18918;BME280;9591;52.742;13.650;2023-05-02T00:04:41;100801.69;;;12.25;92.42
18918;BME280;9591;52.742;13.650;2023-05-02T00:07:30;100801.53;;;12.30;92.04
18918;BME280;9591;52.742;13.650;2023-05-02T00:10:18;100804.53;;;12.21;92.24
18918;BME280;9591;52.742;13.650;2023-05-02T00:13:05;100809.94;;;12.18;92.76
18918;BME280;9591;52.742;13.650;2023-05-02T00:15:52;100800.88;;;12.23;92.57
18918;BME280;9591;52.742;13.650;2023-05-02T00:18:42;100800.94;;;12.22;92.64
18918;BME280;9591;52.742;13.650;2023-05-02T00:21:30;100805.63;;;12.15;93.40
18918;BME280;9591;52.742;13.650;2023-05-02T00:24:17;100803.88;;;12.14;94.07
18918;BME280;9591;52.742;13.650;2023-05-02T00:27:05;100792.53;;;12.10;93.90
18918;BME280;9591;52.742;13.650;2023-05-02T00:29:52;100799.28;;;11.96;95.27
18918;BME280;9591;52.742;13.650;2023-05-02T00:32:39;100805.03;;;11.84;96.07
18918;BME280;9591;52.742;13.650;2023-05-02T00:35:27;100799.16;;;11.74;97.56
18918;BME280;9591;52.742;13.650;2023-05-02T00:38:14;100795.75;;;11.70;96.69
18918;BME280;9591;52.742;13.650;2023-05-02T00:41:01;100793.44;;;11.61;98.66
18918;BME280;9591;52.742;13.650;2023-05-02T00:43:49;100791.91;;;11.54;98.71
18918;BME280;9591;52.742;13.650;2023-05-02T00:46:36;100797.44;;;11.48;98.39
18918;BME280;9591;52.742;13.650;2023-05-02T00:49:23;100789.78;;;11.39;100.00
18918;BME280;9591;52.742;13.650;2023-05-02T00:52:11;100791.03;;;11.29;100.00
18918;BME280;9591;52.742;13.650;2023-05-02T00:55:00;100796.38;;;11.27;98.93
18918;BME280;9591;52.742;13.650;2023-05-02T00:57:47;100786.88;;;11.22;100.00
18918;BME280;9591;52.742;13.650;2023-05-02T01:00:44;100790.91;;;11.32;98.43
18918;BME280;9591;52.742;13.650;2023-05-02T01:03:38;100781.56;;;11.22;99.75
18918;BME280;9591;52.742;13.650;2023-05-02T01:06:34;100783.34;;;11.21;99.08
18918;BME280;9591;52.742;13.650;2023-05-02T01:09:36;100785.19;;;11.19;98.64
18918;BME280;9591;52.742;13.650;2023-05-02T01:12:27;100783.47;;;11.18;98.27
18918;BME280;9591;52.742;13.650;2023-05-02T01:15:19;100782.91;;;11.08;99.08
18918;BME280;9591;52.742;13.650;2023-05-02T01:18:09;100789.13;;;11.07;98.62
18918;BME280;9591;52.742;13.650;2023-05-02T01:21:00;100783.81;;;11.07;97.74
18918;BME280;9591;52.742;13.650;2023-05-02T01:23:58;100798.66;;;11.13;96.80
18918;BME280;9591;52.742;13.650;2023-05-02T01:26:51;100794.31;;;11.10;97.71
18918;BME280;9591;52.742;13.650;2023-05-02T01:29:44;100796.66;;;11.20;96.27
18918;BME280;9591;52.742;13.650;2023-05-02T01:32:33;100795.03;;;11.15;95.80
18918;BME280;9591;52.742;13.650;2023-05-02T01:35:23;100790.69;;;11.13;96.49
18918;BME280;9591;52.742;13.650;2023-05-02T01:38:13;100797.88;;;11.09;96.54
18918;BME280;9591;52.742;13.650;2023-05-02T01:41:02;100805.78;;;11.11;95.61
18918;BME280;9591;52.742;13.650;2023-05-02T01:43:52;100804.91;;;11.10;94.32
18918;BME280;9591;52.742;13.650;2023-05-02T01:46:43;100801.31;;;11.13;94.87
18918;BME280;9591;52.742;13.650;2023-05-02T01:49:31;100808.75;;;11.27;95.60
18918;BME280;9591;52.742;13.650;2023-05-02T01:52:21;100809.38;;;11.35;95.04
18918;BME280;9591;52.742;13.650;2023-05-02T01:55:12;100811.72;;;11.44;93.00
18918;BME280;9591;52.742;13.650;2023-05-02T01:58:00;100810.91;;;11.67;91.35
18918;BME280;9591;52.742;13.650;2023-05-02T02:00:48;100812.19;;;11.81;90.39
18918;BME280;9591;52.742;13.650;2023-05-02T02:03:37;100808.47;;;12.10;86.67
18918;BME280;9591;52.742;13.650;2023-05-02T02:06:24;100817.84;;;12.42;84.58
18918;BME280;9591;52.742;13.650;2023-05-02T02:09:12;100816.56;;;12.53;78.46
18918;BME280;9591;52.742;13.650;2023-05-02T02:12:02;100815.50;;;12.80;78.22
18918;BME280;9591;52.742;13.650;2023-05-02T02:14:55;100790.72;;;12.79;76.58
18918;BME280;9591;52.742;13.650;2023-05-02T02:17:45;100832.09;;;13.07;74.66
18918;BME280;9591;52.742;13.650;2023-05-02T02:20:34;100830.75;;;13.19;73.94
18918;BME280;9591;52.742;13.650;2023-05-02T02:23:24;100830.56;;;13.23;71.68
18918;BME280;9591;52.742;13.650;2023-05-02T02:26:13;100842.50;;;13.35;71.13
18918;BME280;9591;52.742;13.650;2023-05-02T02:28:59;100837.25;;;13.33;71.25
18918;BME280;9591;52.742;13.650;2023-05-02T02:31:47;100844.41;;;13.31;71.41
18918;BME280;9591;52.742;13.650;2023-05-02T02:34:33;100848.56;;;13.38;70.80
18918;BME280;9591;52.742;13.650;2023-05-02T02:37:25;100845.34;;;13.30;69.59
18918;BME280;9591;52.742;13.650;2023-05-02T02:40:20;100857.00;;;13.48;69.39
18918;BME280;9591;52.742;13.650;2023-05-02T02:43:13;100861.72;;;13.41;69.17
18918;BME280;9591;52.742;13.650;2023-05-02T02:46:13;100870.75;;;13.37;69.94
18918;BME280;9591;52.742;13.650;2023-05-02T02:49:14;100869.91;;;13.37;69.56
18918;BME280;9591;52.742;13.650;2023-05-02T02:52:08;100886.00;;;13.34;69.53
18918;BME280;9591;52.742;13.650;2023-05-02T02:54:59;100881.53;;;13.34;69.62
18918;BME280;9591;52.742;13.650;2023-05-02T02:57:58;100853.19;;;13.11;69.45
18918;BME280;9591;52.742;13.650;2023-05-02T03:00:46;100895.88;;;13.30;69.40
18918;BME280;9591;52.742;13.650;2023-05-02T03:03:35;100905.56;;;13.09;71.11
18918;BME280;9591;52.742;13.650;2023-05-02T03:06:22;100900.91;;;13.14;71.05
18918;BME280;9591;52.742;13.650;2023-05-02T03:09:14;100899.88;;;12.97;71.88
18918;BME280;9591;52.742;13.650;2023-05-02T03:12:05;100907.06;;;13.17;71.19
18918;BME280;9591;52.742;13.650;2023-05-02T03:15:02;100908.88;;;13.16;71.19
18918;BME280;9591;52.742;13.650;2023-05-02T03:17:53;100909.59;;;12.98;71.88
18918;BME280;9591;52.742;13.650;2023-05-02T03:20:40;100908.03;;;12.92;72.36
18918;BME280;9591;52.742;13.650;2023-05-02T03:23:27;100920.81;;;12.83;73.33
18918;BME280;9591;52.742;13.650;2023-05-02T03:26:14;100926.31;;;12.78;73.60
18918;BME280;9591;52.742;13.650;2023-05-02T03:29:03;100930.59;;;12.82;73.27
18918;BME280;9591;52.742;13.650;2023-05-02T03:31:55;100927.69;;;12.65;75.46
18918;BME280;9591;52.742;13.650;2023-05-02T03:34:42;100932.38;;;12.58;76.79
18918;BME280;9591;52.742;13.650;2023-05-02T03:37:29;100928.19;;;12.28;79.91
18918;BME280;9591;52.742;13.650;2023-05-02T03:40:17;100932.72;;;12.24;82.65
18918;BME280;9591;52.742;13.650;2023-05-02T03:43:06;100947.09;;;11.94;83.72
18918;BME280;9591;52.742;13.650;2023-05-02T03:45:54;100951.97;;;11.81;85.97
18918;BME280;9591;52.742;13.650;2023-05-02T03:48:41;100956.19;;;11.87;86.81
18918;BME280;9591;52.742;13.650;2023-05-02T03:51:30;100962.06;;;11.96;85.00
18918;BME280;9591;52.742;13.650;2023-05-02T03:54:18;100958.94;;;11.84;86.28
18918;BME280;9591;52.742;13.650;2023-05-02T03:57:05;100974.47;;;11.68;86.81
18918;BME280;9591;52.742;13.650;2023-05-02T03:59:52;100980.19;;;11.56;86.84
18918;BME280;9591;52.742;13.650;2023-05-02T04:02:46;100981.88;;;11.58;86.47
18918;BME280;9591;52.742;13.650;2023-05-02T04:05:36;100981.81;;;11.60;87.98
18918;BME280;9591;52.742;13.650;2023-05-02T04:08:23;100985.44;;;11.57;87.90
18918;BME280;9591;52.742;13.650;2023-05-02T04:11:10;100993.41;;;11.57;89.12
18918;BME280;9591;52.742;13.650;2023-05-02T04:13:58;100994.25;;;11.58;87.95
18918;BME280;9591;52.742;13.650;2023-05-02T04:16:48;101004.09;;;11.54;87.60
18918;BME280;9591;52.742;13.650;2023-05-02T04:19:42;101012.78;;;11.59;86.78
18918;BME280;9591;52.742;13.650;2023-05-02T04:22:29;101011.47;;;11.72;88.18
18918;BME280;9591;52.742;13.650;2023-05-02T04:25:21;101021.13;;;12.03;86.27
18918;BME280;9591;52.742;13.650;2023-05-02T04:28:09;101019.34;;;12.28;85.00
18918;BME280;9591;52.742;13.650;2023-05-02T04:30:56;101027.03;;;12.36;84.67
18918;BME280;9591;52.742;13.650;2023-05-02T04:33:44;101030.03;;;12.52;84.47
18918;BME280;9591;52.742;13.650;2023-05-02T04:36:38;101025.75;;;12.47;84.54
18918;BME280;9591;52.742;13.650;2023-05-02T04:39:28;101025.16;;;12.64;82.87
18918;BME280;9591;52.742;13.650;2023-05-02T04:42:19;101029.44;;;12.68;82.75
18918;BME280;9591;52.742;13.650;2023-05-02T04:45:14;101029.09;;;12.77;81.15
18918;BME280;9591;52.742;13.650;2023-05-02T04:48:03;101027.25;;;12.79;83.35
18918;BME280;9591;52.742;13.650;2023-05-02T04:50:51;101014.66;;;12.85;80.07
18918;BME280;9591;52.742;13.650;2023-05-02T04:53:40;101028.91;;;13.05;78.78
18918;BME280;9591;52.742;13.650;2023-05-02T04:56:26;101036.91;;;13.29;77.47
18918;BME280;9591;52.742;13.650;2023-05-02T04:59:13;101042.41;;;13.48;76.04
18918;BME280;9591;52.742;13.650;2023-05-02T05:02:00;101051.31;;;13.68;74.70
18918;BME280;9591;52.742;13.650;2023-05-02T05:04:47;101057.03;;;14.84;70.28
18918;BME280;9591;52.742;13.650;2023-05-02T05:07:35;101054.03;;;16.04;64.70
18918;BME280;9591;52.742;13.650;2023-05-02T05:10:25;101055.22;;;16.85;61.36
18918;BME280;9591;52.742;13.650;2023-05-02T05:13:12;101061.25;;;17.22;58.02
18918;BME280;9591;52.742;13.650;2023-05-02T05:16:00;101063.84;;;17.39;58.20
18918;BME280;9591;52.742;13.650;2023-05-02T05:18:50;101072.13;;;17.19;57.28
18918;BME280;9591;52.742;13.650;2023-05-02T05:21:38;101073.78;;;17.37;56.10
18918;BME280;9591;52.742;13.650;2023-05-02T05:24:25;101068.72;;;17.64;55.60
18918;BME280;9591;52.742;13.650;2023-05-02T05:27:16;101074.66;;;18.46;54.12
18918;BME280;9591;52.742;13.650;2023-05-02T05:30:03;101070.84;;;18.94;51.74
18918;BME280;9591;52.742;13.650;2023-05-02T05:32:50;101087.22;;;19.18;50.84
18918;BME280;9591;52.742;13.650;2023-05-02T05:35:38;101085.69;;;19.28;51.55
18918;BME280;9591;52.742;13.650;2023-05-02T05:38:25;101091.06;;;19.14;50.82
18918;BME280;9591;52.742;13.650;2023-05-02T05:41:12;101090.31;;;19.69;50.02
18918;BME280;9591;52.742;13.650;2023-05-02T05:44:05;101103.31;;;19.89;47.47
18918;BME280;9591;52.742;13.650;2023-05-02T05:46:52;101098.16;;;19.15;49.53
18918;BME280;9591;52.742;13.650;2023-05-02T05:49:40;101099.72;;;19.05;50.38
18918;BME280;9591;52.742;13.650;2023-05-02T05:52:28;101115.22;;;19.14;50.69
18918;BME280;9591;52.742;13.650;2023-05-02T05:55:17;101114.38;;;19.42;50.49
18918;BME280;9591;52.742;13.650;2023-05-02T05:58:04;101118.22;;;19.24;51.70
18918;BME280;9591;52.742;13.650;2023-05-02T06:00:54;101124.47;;;18.50;53.62
18918;BME280;9591;52.742;13.650;2023-05-02T06:03:41;101135.72;;;17.80;57.76
18918;BME280;9591;52.742;13.650;2023-05-02T06:06:28;101144.69;;;17.30;60.33
18918;BME280;9591;52.742;13.650;2023-05-02T06:09:16;101144.38;;;16.32;64.36
18918;BME280;9591;52.742;13.650;2023-05-02T06:12:03;101153.44;;;16.11;67.59
18918;BME280;9591;52.742;13.650;2023-05-02T06:14:51;101152.88;;;16.41;68.26
18918;BME280;9591;52.742;13.650;2023-05-02T06:17:40;101170.53;;;16.79;66.26
18918;BME280;9591;52.742;13.650;2023-05-02T06:20:27;101181.25;;;17.14;64.92
18918;BME280;9591;52.742;13.650;2023-05-02T06:23:13;101170.97;;;17.55;62.88
18918;BME280;9591;52.742;13.650;2023-05-02T06:26:01;101189.28;;;17.47;61.61
18918;BME280;9591;52.742;13.650;2023-05-02T06:28:48;101187.34;;;17.33;63.27
18918;BME280;9591;52.742;13.650;2023-05-02T06:31:35;101176.91;;;17.11;64.63
18918;BME280;9591;52.742;13.650;2023-05-02T06:34:23;101197.53;;;16.75;66.35
18918;BME280;9591;52.742;13.650;2023-05-02T06:37:10;101201.38;;;16.50;67.85
18918;BME280;9591;52.742;13.650;2023-05-02T06:39:57;101207.75;;;16.12;70.04
18918;BME280;9591;52.742;13.650;2023-05-02T06:42:44;101221.25;;;15.90;71.91
18918;BME280;9591;52.742;13.650;2023-05-02T06:45:32;101216.03;;;15.87;73.97
18918;BME280;9591;52.742;13.650;2023-05-02T06:48:19;101218.06;;;16.00;73.55
18918;BME280;9591;52.742;13.650;2023-05-02T06:51:08;101219.38;;;16.29;72.51
18918;BME280;9591;52.742;13.650;2023-05-02T06:53:55;101219.50;;;16.26;73.15
18918;BME280;9591;52.742;13.650;2023-05-02T06:56:42;101226.59;;;16.27;72.72
18918;BME280;9591;52.742;13.650;2023-05-02T06:59:29;101234.41;;;16.13;73.17
18918;BME280;9591;52.742;13.650;2023-05-02T07:02:15;101243.28;;;16.14;73.54
18918;BME280;9591;52.742;13.650;2023-05-02T07:05:02;101240.31;;;16.38;73.49
18918;BME280;9591;52.742;13.650;2023-05-02T07:07:50;101247.25;;;16.43;72.93
18918;BME280;9591;52.742;13.650;2023-05-02T07:10:37;101255.03;;;16.10;73.30
18918;BME280;9591;52.742;13.650;2023-05-02T07:13:23;101256.94;;;16.26;74.65
18918;BME280;9591;52.742;13.650;2023-05-02T07:16:10;101262.78;;;16.34;74.59
18918;BME280;9591;52.742;13.650;2023-05-02T07:18:57;101261.53;;;16.42;72.68
18918;BME280;9591;52.742;13.650;2023-05-02T07:21:44;101265.16;;;16.22;73.88
18918;BME280;9591;52.742;13.650;2023-05-02T07:24:32;101266.69;;;16.27;73.01
18918;BME280;9591;52.742;13.650;2023-05-02T07:27:19;101269.75;;;16.75;70.65
18918;BME280;9591;52.742;13.650;2023-05-02T07:30:07;101267.09;;;16.92;71.02
18918;BME280;9591;52.742;13.650;2023-05-02T07:32:53;101273.72;;;17.19;69.08
18918;BME280;9591;52.742;13.650;2023-05-02T07:35:40;101273.34;;;17.27;69.31
18918;BME280;9591;52.742;13.650;2023-05-02T07:38:27;101268.13;;;17.07;70.16
18918;BME280;9591;52.742;13.650;2023-05-02T07:41:15;101264.50;;;16.90;70.38
18918;BME280;9591;52.742;13.650;2023-05-02T07:44:02;101270.00;;;16.87;70.19
18918;BME280;9591;52.742;13.650;2023-05-02T07:46:49;101268.78;;;17.12;69.79
18918;BME280;9591;52.742;13.650;2023-05-02T07:49:36;101271.88;;;17.37;69.87
18918;BME280;9591;52.742;13.650;2023-05-02T07:52:23;101266.69;;;17.51;68.93
18918;BME280;9591;52.742;13.650;2023-05-02T07:55:10;101269.94;;;17.06;69.82
18918;BME280;9591;52.742;13.650;2023-05-02T07:57:58;101284.22;;;17.24;71.46
18918;BME280;9591;52.742;13.650;2023-05-02T08:00:45;101284.16;;;17.41;69.61
18918;BME280;9591;52.742;13.650;2023-05-02T08:03:32;101288.47;;;17.28;69.50
18918;BME280;9591;52.742;13.650;2023-05-02T08:06:19;101293.63;;;17.48;69.82
18918;BME280;9591;52.742;13.650;2023-05-02T08:09:07;101303.53;;;17.63;67.88
18918;BME280;9591;52.742;13.650;2023-05-02T08:11:54;101306.38;;;17.78;68.52
18918;BME280;9591;52.742;13.650;2023-05-02T08:14:42;101308.47;;;18.06;67.89
18918;BME280;9591;52.742;13.650;2023-05-02T08:17:28;101313.72;;;18.07;65.90
18918;BME280;9591;52.742;13.650;2023-05-02T08:20:16;101316.06;;;17.80;67.55
18918;BME280;9591;52.742;13.650;2023-05-02T08:23:02;101326.41;;;17.71;67.28
18918;BME280;9591;52.742;13.650;2023-05-02T08:25:49;101324.34;;;17.76;67.79
18918;BME280;9591;52.742;13.650;2023-05-02T08:28:36;101334.50;;;17.86;68.12
18918;BME280;9591;52.742;13.650;2023-05-02T08:31:24;101342.84;;;17.97;68.45
18918;BME280;9591;52.742;13.650;2023-05-02T08:34:11;101344.16;;;18.06;67.77
18918;BME280;9591;52.742;13.650;2023-05-02T08:36:57;101347.28;;;17.81;68.69
18918;BME280;9591;52.742;13.650;2023-05-02T08:39:44;101358.22;;;17.94;67.94
18918;BME280;9591;52.742;13.650;2023-05-02T08:42:32;101360.03;;;17.76;69.49
18918;BME280;9591;52.742;13.650;2023-05-02T08:45:19;101364.25;;;17.46;71.08
18918;BME280;9591;52.742;13.650;2023-05-02T08:48:10;101369.28;;;17.34;70.43
18918;BME280;9591;52.742;13.650;2023-05-02T08:50:58;101368.97;;;16.87;72.52
18918;BME280;9591;52.742;13.650;2023-05-02T08:53:45;101372.50;;;17.07;73.08
18918;BME280;9591;52.742;13.650;2023-05-02T08:56:32;101376.13;;;17.06;72.33
18918;BME280;9591;52.742;13.650;2023-05-02T08:59:19;101377.50;;;17.31;73.98
18918;BME280;9591;52.742;13.650;2023-05-02T09:05:18;101386.34;;;17.85;71.22
18918;BME280;9591;52.742;13.650;2023-05-02T09:08:06;101389.91;;;17.86;69.21
18918;BME280;9591;52.742;13.650;2023-05-02T09:10:53;101398.81;;;17.86;68.72
18918;BME280;9591;52.742;13.650;2023-05-02T09:13:41;101403.34;;;17.50;72.26
18918;BME280;9591;52.742;13.650;2023-05-02T09:16:28;101410.19;;;17.55;70.74
18918;BME280;9591;52.742;13.650;2023-05-02T09:19:22;101409.78;;;17.46;70.89
18918;BME280;9591;52.742;13.650;2023-05-02T09:22:21;101421.38;;;17.46;72.21
18918;BME280;9591;52.742;13.650;2023-05-02T09:25:09;101420.56;;;17.44;70.41
18918;BME280;9591;52.742;13.650;2023-05-02T09:27:56;101425.63;;;17.33;69.72
18918;BME280;9591;52.742;13.650;2023-05-02T09:30:45;101432.59;;;17.35;71.07
18918;BME280;9591;52.742;13.650;2023-05-02T09:33:32;101429.47;;;17.27;72.46
18918;BME280;9591;52.742;13.650;2023-05-02T09:36:20;101431.28;;;17.27;71.94
18918;BME280;9591;52.742;13.650;2023-05-02T09:39:10;101432.69;;;17.34;71.87
18918;BME280;9591;52.742;13.650;2023-05-02T09:41:58;101429.06;;;17.35;71.57
18918;BME280;9591;52.742;13.650;2023-05-02T09:44:45;101428.69;;;17.43;71.07
18918;BME280;9591;52.742;13.650;2023-05-02T09:47:33;101436.81;;;17.58;70.80
18918;BME280;9591;52.742;13.650;2023-05-02T09:50:36;101441.44;;;17.74;69.98
18918;BME280;9591;52.742;13.650;2023-05-02T09:53:24;101434.66;;;17.66;69.98
18918;BME280;9591;52.742;13.650;2023-05-02T09:56:13;101448.06;;;17.12;72.33
18918;BME280;9591;52.742;13.650;2023-05-02T09:59:13;101461.00;;;16.64;76.08
18918;BME280;9591;52.742;13.650;2023-05-02T10:02:02;101466.78;;;16.35;80.61
18918;BME280;9591;52.742;13.650;2023-05-02T10:04:50;101462.19;;;16.38;81.15
18918;BME280;9591;52.742;13.650;2023-05-02T10:07:39;101468.81;;;16.69;81.19
18918;BME280;9591;52.742;13.650;2023-05-02T10:10:26;101473.09;;;16.73;80.04
18918;BME280;9591;52.742;13.650;2023-05-02T10:13:15;101479.38;;;16.72;81.76
18918;BME280;9591;52.742;13.650;2023-05-02T10:16:05;101486.19;;;16.79;79.13
18918;BME280;9591;52.742;13.650;2023-05-02T10:18:57;101503.22;;;16.56;78.88
18918;BME280;9591;52.742;13.650;2023-05-02T10:21:49;101496.28;;;16.73;77.51
18918;BME280;9591;52.742;13.650;2023-05-02T10:24:37;101490.38;;;16.25;80.04
18918;BME280;9591;52.742;13.650;2023-05-02T10:27:25;101496.88;;;16.59;78.03
18918;BME280;9591;52.742;13.650;2023-05-02T10:30:14;101494.34;;;16.76;79.06
18918;BME280;9591;52.742;13.650;2023-05-02T10:33:05;101493.72;;;17.09;76.95
18918;BME280;9591;52.742;13.650;2023-05-02T10:35:52;101488.94;;;17.51;74.35
18918;BME280;9591;52.742;13.650;2023-05-02T10:38:39;101503.53;;;17.82;71.67
18918;BME280;9591;52.742;13.650;2023-05-02T10:41:29;101505.09;;;17.68;72.11
18918;BME280;9591;52.742;13.650;2023-05-02T10:44:17;101506.41;;;17.41;69.91
18918;BME280;9591;52.742;13.650;2023-05-02T10:47:19;101521.94;;;17.16;71.55
18918;BME280;9591;52.742;13.650;2023-05-02T10:50:07;101526.53;;;16.93;71.25
18918;BME280;9591;52.742;13.650;2023-05-02T10:52:56;101533.56;;;16.36;73.96
18918;BME280;9591;52.742;13.650;2023-05-02T10:55:43;101539.44;;;16.45;75.71
18918;BME280;9591;52.742;13.650;2023-05-02T10:58:30;101538.84;;;16.38;74.46
18918;BME280;9591;52.742;13.650;2023-05-02T11:01:36;101518.91;;;16.04;74.75
18918;BME280;9591;52.742;13.650;2023-05-02T11:14:48;101569.91;;;15.98;71.75
18918;BME280;9591;52.742;13.650;2023-05-02T11:17:59;101571.53;;;15.81;73.00
18918;BME280;9591;52.742;13.650;2023-05-02T11:20:47;101583.34;;;15.06;73.52
18918;BME280;9591;52.742;13.650;2023-05-02T11:23:33;101587.97;;;15.01;74.16
18918;BME280;9591;52.742;13.650;2023-05-02T11:26:21;101584.38;;;15.02;74.46
18918;BME280;9591;52.742;13.650;2023-05-02T11:29:11;101587.97;;;15.01;76.09
18918;BME280;9591;52.742;13.650;2023-05-02T11:32:02;101590.56;;;15.03;74.24
18918;BME280;9591;52.742;13.650;2023-05-02T11:34:56;101597.66;;;15.04;73.99
18918;BME280;9591;52.742;13.650;2023-05-02T11:37:43;101608.38;;;15.02;72.40
18918;BME280;9591;52.742;13.650;2023-05-02T11:40:38;101617.59;;;14.94;71.92
18918;BME280;9591;52.742;13.650;2023-05-02T11:43:26;101619.31;;;15.20;71.77
18918;BME280;9591;52.742;13.650;2023-05-02T11:46:16;101629.34;;;15.13;71.58
18918;BME280;9591;52.742;13.650;2023-05-02T11:49:07;101623.69;;;14.97;70.91
18918;BME280;9591;52.742;13.650;2023-05-02T11:51:57;101633.91;;;15.09;67.98
18918;BME280;9591;52.742;13.650;2023-05-02T11:54:44;101636.09;;;14.98;70.40
18918;BME280;9591;52.742;13.650;2023-05-02T11:57:32;101636.25;;;15.19;67.34
18918;BME280;9591;52.742;13.650;2023-05-02T12:00:26;101637.47;;;15.33;65.12
18918;BME280;9591;52.742;13.650;2023-05-02T12:03:20;101632.34;;;15.27;66.22
18918;BME280;9591;52.742;13.650;2023-05-02T12:06:10;101634.63;;;15.61;64.63
18918;BME280;9591;52.742;13.650;2023-05-02T12:09:07;101633.72;;;16.06;61.18
18918;BME280;9591;52.742;13.650;2023-05-02T12:11:54;101631.34;;;15.77;60.99
18918;BME280;9591;52.742;13.650;2023-05-02T12:14:42;101642.56;;;16.08;58.47
18918;BME280;9591;52.742;13.650;2023-05-02T12:17:29;101652.88;;;16.17;60.71
18918;BME280;9591;52.742;13.650;2023-05-02T12:20:16;101642.31;;;16.14;59.03
18918;BME280;9591;52.742;13.650;2023-05-02T12:23:05;101650.88;;;16.22;58.48
18918;BME280;9591;52.742;13.650;2023-05-02T12:25:54;101655.47;;;16.41;57.86
18918;BME280;9591;52.742;13.650;2023-05-02T12:28:47;101667.84;;;16.43;58.83
18918;BME280;9591;52.742;13.650;2023-05-02T12:31:34;101664.88;;;16.49;58.83
18918;BME280;9591;52.742;13.650;2023-05-02T12:34:31;101663.50;;;16.41;58.41
18918;BME280;9591;52.742;13.650;2023-05-02T12:37:21;101660.06;;;16.37;57.66
18918;BME280;9591;52.742;13.650;2023-05-02T12:40:15;101661.94;;;16.35;58.15
18918;BME280;9591;52.742;13.650;2023-05-02T12:43:03;101668.91;;;16.39;58.01
18918;BME280;9591;52.742;13.650;2023-05-02T12:46:10;101671.50;;;16.41;58.49
18918;BME280;9591;52.742;13.650;2023-05-02T12:49:04;101674.81;;;16.25;57.28
18918;BME280;9591;52.742;13.650;2023-05-02T12:51:53;101667.34;;;16.33;56.73
18918;BME280;9591;52.742;13.650;2023-05-02T12:54:40;101676.25;;;16.12;57.58
18918;BME280;9591;52.742;13.650;2023-05-02T12:57:30;101677.28;;;16.30;59.20
18918;BME280;9591;52.742;13.650;2023-05-02T13:00:17;101684.69;;;16.23;57.47
18918;BME280;9591;52.742;13.650;2023-05-02T13:03:04;101687.94;;;16.31;56.99
18918;BME280;9591;52.742;13.650;2023-05-02T13:05:52;101670.00;;;15.90;56.86
18918;BME280;9591;52.742;13.650;2023-05-02T13:08:39;101689.59;;;16.12;59.97
18918;BME280;9591;52.742;13.650;2023-05-02T13:11:26;101689.34;;;15.96;58.52
18918;BME280;9591;52.742;13.650;2023-05-02T13:14:15;101693.00;;;15.94;57.65
18918;BME280;9591;52.742;13.650;2023-05-02T13:17:02;101696.00;;;16.08;57.87
18918;BME280;9591;52.742;13.650;2023-05-02T13:19:48;101705.44;;;16.17;56.91
18918;BME280;9591;52.742;13.650;2023-05-02T13:22:45;101701.28;;;16.31;55.86
18918;BME280;9591;52.742;13.650;2023-05-02T13:25:32;101706.00;;;16.25;55.93
18918;BME280;9591;52.742;13.650;2023-05-02T13:28:19;101702.59;;;16.21;56.50
18918;BME280;9591;52.742;13.650;2023-05-02T13:31:07;101709.19;;;16.13;57.67
18918;BME280;9591;52.742;13.650;2023-05-02T13:33:54;101726.41;;;15.82;56.35
18918;BME280;9591;52.742;13.650;2023-05-02T13:36:41;101723.19;;;15.72;57.72
18918;BME280;9591;52.742;13.650;2023-05-02T13:39:30;101733.31;;;15.88;56.67
18918;BME280;9591;52.742;13.650;2023-05-02T13:42:17;101725.94;;;15.94;56.27
18918;BME280;9591;52.742;13.650;2023-05-02T13:45:05;101727.44;;;15.55;56.30
18918;BME280;9591;52.742;13.650;2023-05-02T13:47:54;101726.09;;;15.66;56.14
18918;BME280;9591;52.742;13.650;2023-05-02T13:50:41;101733.00;;;15.49;55.58
18918;BME280;9591;52.742;13.650;2023-05-02T13:53:27;101735.50;;;15.28;56.57
18918;BME280;9591;52.742;13.650;2023-05-02T13:56:14;101732.47;;;15.39;57.43
18918;BME280;9591;52.742;13.650;2023-05-02T13:59:01;101738.44;;;15.46;56.50
18918;BME280;9591;52.742;13.650;2023-05-02T14:01:51;101737.16;;;15.57;56.15
18918;BME280;9591;52.742;13.650;2023-05-02T14:04:39;101746.06;;;15.56;54.94
18918;BME280;9591;52.742;13.650;2023-05-02T14:07:26;101746.13;;;15.55;55.80
18918;BME280;9591;52.742;13.650;2023-05-02T14:10:14;101760.25;;;15.33;56.67
18918;BME280;9591;52.742;13.650;2023-05-02T14:13:00;101767.47;;;14.79;55.18
18918;BME280;9591;52.742;13.650;2023-05-02T14:15:47;101762.09;;;14.80;57.45
18918;BME280;9591;52.742;13.650;2023-05-02T14:18:34;101770.47;;;14.69;57.36
18918;BME280;9591;52.742;13.650;2023-05-02T14:21:22;101776.25;;;14.56;58.11
18918;BME280;9591;52.742;13.650;2023-05-02T14:24:09;101774.38;;;14.30;59.94
18918;BME280;9591;52.742;13.650;2023-05-02T14:26:58;101714.25;;;14.21;59.11
18918;BME280;9591;52.742;13.650;2023-05-02T14:29:46;101791.06;;;14.36;59.52
18918;BME280;9591;52.742;13.650;2023-05-02T14:32:33;101795.56;;;14.34;58.34
18918;BME280;9591;52.742;13.650;2023-05-02T14:35:20;101793.66;;;14.38;57.13
18918;BME280;9591;52.742;13.650;2023-05-02T14:38:08;101796.47;;;14.33;57.91
18918;BME280;9591;52.742;13.650;2023-05-02T14:40:56;101799.47;;;14.23;57.14
18918;BME280;9591;52.742;13.650;2023-05-02T14:43:42;101811.78;;;13.97;58.68
18918;BME280;9591;52.742;13.650;2023-05-02T14:46:29;101806.09;;;13.80;58.77
18918;BME280;9591;52.742;13.650;2023-05-02T14:49:16;101780.31;;;13.50;58.64
18918;BME280;9591;52.742;13.650;2023-05-02T14:52:03;101818.28;;;13.56;60.01
18918;BME280;9591;52.742;13.650;2023-05-02T14:54:51;101819.91;;;13.29;59.13
18918;BME280;9591;52.742;13.650;2023-05-02T14:57:38;101814.38;;;13.37;58.24